Overview Statistics Trail Chart Weather Telemetry Raw packets
 

This is the latest recevied weather packets stored in our database for station/object KO4DYK. If no packets are shown the sender has not sent any weather packets the latest 10 day(s).

<< 74 75 76 77 78 79 80 >>
Time Temp. Humidity Pressure Rain* Wind** Luminosity Snow
1788126204 35° C 55% 1018 hPa 0 mm - 367 W/m² -
1788125904 34.44° C 56% 1018 hPa 0 mm - 382 W/m² -
1788125599 33.89° C 58% 1017.9 hPa 0 mm - 407 W/m² -
1788125295 34.44° C 57% 1018.1 hPa 0 mm - 88 W/m² -
1788124991 33.89° C 58% 1018 hPa 0 mm - 406 W/m² -
1788124689 35° C 55% 1018.1 hPa 0 mm - 97 W/m² -
1788124389 35° C 56% 1018.2 hPa 0 mm - 456 W/m² -
1788124085 35° C 55% 1018.1 hPa 0 mm - 455 W/m² -
1788123783 35° C 56% 1018.2 hPa 0 mm - 502 W/m² -
1788123476 35.56° C 54% 1018.2 hPa 0 mm - 123 W/m² -
1788123176 36.11° C 53% 1018.1 hPa 0 mm - 520 W/m² -
1788122871 36.67° C 52% 1018 hPa 0 mm - 538 W/m² -
1788122570 35.56° C 53% 1018.3 hPa 0 mm - 544 W/m² -
1788122266 35° C 56% 1018.3 hPa 0 mm - 203 W/m² -
1788121962 35° C 56% 1018.3 hPa 0 mm - 175 W/m² -
1788121669 35° C 56% 1018.5 hPa 0 mm - 144 W/m² -
1788121357 37.78° C 50% 1018.4 hPa 0 mm - 145 W/m² -
1788121056 36.11° C 52% 1018.5 hPa 0 mm - 632 W/m² -
1788120752 35.56° C 53% 1018.5 hPa 0 mm - 159 W/m² -
1788120447 37.22° C 49% 1018.5 hPa 0 mm - 656 W/m² -
1788120146 35° C 54% 1018.6 hPa 0 mm - 675 W/m² -
1788119841 35.56° C 54% 1018.7 hPa 0 mm - 179 W/m² -
1788119540 36.11° C 51% 1018.7 hPa 0 mm - 714 W/m² -
1788119239 36.67° C 49% 1019 hPa 0 mm - 742 W/m² -
1788118934 35.56° C 53% 1019 hPa 0 mm - 728 W/m² -

* Rain latest hour (hover to see other rain measurements)
** Current wind speed in m/s (hover to see current wind gust speed)